Time;durP1;ratioP1;P1;durP2;ratioP2;P2;SDS_P1;SDS_P2;PMS_P1;PMS_P2;Temp;Humidity;BMP_temperature;BMP_pressure;BME280_temperature;BME280_humidity;BME280_pressure;Samples;Min_cycle;Max_cycle;Signal;HPM_P1;HPM_P2
2021/04/14 04:10:42;;;;;;;11.65;9.18;;;20.80;76.40;;;;;;5118817;27;20884;-70
2021/04/14 04:13:13;;;;;;;10.27;8.73;;;20.70;77.20;;;;;;5099165;28;20054;-69
2021/04/14 04:15:40;;;;;;;7.80;6.85;;;20.70;77.80;;;;;;5098912;28;20016;-70
2021/04/14 04:18:07;;;;;;;7.32;5.13;;;20.70;77.90;;;;;;5104573;28;20039;-69
2021/04/14 04:20:34;;;;;;;7.07;4.35;;;20.70;77.70;;;;;;5106192;28;20028;-70
2021/04/14 04:23:02;;;;;;;6.95;4.03;;;20.80;77.40;;;;;;5099557;28;20097;-69
2021/04/14 04:25:32;;;;;;;9.10;6.57;;;20.90;77.00;;;;;;5105820;28;20028;-68
2021/04/14 04:27:59;;;;;;;13.07;7.55;;;20.90;76.60;;;;;;5103560;28;20028;-68
2021/04/14 04:30:28;;;;;;;8.60;5.97;;;20.90;76.40;;;;;;5101816;28;20841;-69
2021/04/14 04:32:55;;;;;;;10.75;7.10;;;21.00;76.20;;;;;;5102420;28;20024;-68
2021/04/14 04:35:23;;;;;;;8.98;8.05;;;21.00;75.90;;;;;;5105931;28;20159;-69
2021/04/14 04:37:50;;;;;;;7.97;7.07;;;21.00;75.80;;;;;;5098944;28;20031;-68
2021/04/14 04:40:17;;;;;;;10.85;5.53;;;21.00;75.60;;;;;;5104556;28;20023;-67
2021/04/14 04:42:44;;;;;;;7.10;5.28;;;21.10;76.20;;;;;;5101639;28;20427;-69
2021/04/14 04:45:13;;;;;;;6.28;4.22;;;21.10;75.40;;;;;;5106326;28;20085;-68
2021/04/14 04:47:39;;;;;;;8.90;3.55;;;21.10;75.30;;;;;;5102451;28;20378;-68
2021/04/14 04:50:07;;;;;;;7.32;4.93;;;21.10;75.20;;;;;;5101847;28;20028;-69
2021/04/14 04:52:34;;;;;;;6.50;3.67;;;21.10;75.00;;;;;;5105680;28;20092;-69
2021/04/14 04:55:01;;;;;;;6.32;3.38;;;21.10;75.00;;;;;;5098686;28;20091;-69
2021/04/14 04:57:27;;;;;;;7.70;4.43;;;21.10;74.90;;;;;;5105700;28;20026;-69
2021/04/14 04:59:54;;;;;;;8.95;4.55;;;21.10;74.80;;;;;;5102038;28;20056;-69
2021/04/14 05:02:20;;;;;;;5.10;3.72;;;21.10;74.80;;;;;;5103169;28;20024;-69
2021/04/14 05:04:47;;;;;;;7.55;4.07;;;21.10;74.80;;;;;;5097353;28;20102;-69
2021/04/14 05:07:14;;;;;;;6.65;3.78;;;21.10;74.70;;;;;;5094356;28;20016;-69
2021/04/14 05:09:41;;;;;;;10.30;4.15;;;21.10;74.70;;;;;;5093326;28;20099;-69
2021/04/14 05:12:08;;;;;;;5.78;3.13;;;21.10;74.60;;;;;;5098148;28;20020;-69
2021/04/14 05:14:35;;;;;;;7.80;3.55;;;21.10;74.60;;;;;;5097136;28;20096;-69
2021/04/14 05:17:02;;;;;;;5.55;3.15;;;21.10;74.50;;;;;;5098275;28;20023;-70
2021/04/14 05:19:29;;;;;;;4.72;4.13;;;21.10;74.50;;;;;;5098981;28;20028;-70
2021/04/14 05:21:56;;;;;;;5.55;3.97;;;21.00;74.50;;;;;;5079895;28;20025;-69
2021/04/14 05:24:23;;;;;;;3.13;2.80;;;21.10;74.40;;;;;;5082557;28;20092;-69
2021/04/14 05:26:49;;;;;;;6.60;3.10;;;21.00;74.40;;;;;;5081616;28;20046;-70
2021/04/14 05:29:16;;;;;;;5.68;4.13;;;21.10;74.40;;;;;;5078785;28;20024;-69
2021/04/14 05:32:22;;;;;;;5.85;3.67;;;21.00;74.40;;;;;;5088504;28;20016;-69
2021/04/14 05:35:29;;;;;;;6.05;3.50;;;21.00;74.30;;;;;;5086775;28;20056;-69
2021/04/14 05:38:23;;;;;;;5.38;3.03;;;21.00;74.30;;;;;;5082922;28;20024;-69
2021/04/14 05:40:50;;;;;;;7.68;3.65;;;21.00;74.30;;;;;;5092467;28;20043;-68
2021/04/14 05:43:26;;;;;;;7.53;3.28;;;21.00;74.30;;;;;;5091487;28;20020;-69
2021/04/14 05:45:55;;;;;;;8.30;3.25;;;21.00;75.00;;;;;;5081544;28;20025;-68
2021/04/14 05:48:22;;;;;;;4.43;2.90;;;21.00;74.30;;;;;;5084215;28;20025;-69
2021/04/14 05:50:49;;;;;;;6.65;4.22;;;21.00;74.40;;;;;;5091316;28;20028;-69
2021/04/14 05:53:16;;;;;;;6.00;2.97;;;21.00;74.40;;;;;;5089438;28;20024;-68
2021/04/14 05:55:43;;;;;;;5.50;3.35;;;21.00;74.40;;;;;;5083622;28;20587;-68
2021/04/14 05:58:09;;;;;;;4.63;3.40;;;21.00;74.40;;;;;;5091872;28;20140;-69
2021/04/14 06:00:36;;;;;;;4.43;3.25;;;21.00;74.50;;;;;;5089074;28;20016;-69
2021/04/14 06:03:02;;;;;;;2.97;2.67;;;21.00;74.60;;;;;;5087887;28;20183;-69
2021/04/14 06:05:29;;;;;;;4.47;2.88;;;21.00;74.70;;;;;;5087788;28;20054;-69
2021/04/14 06:07:55;;;;;;;7.07;4.00;;;21.00;74.70;;;;;;5085878;28;20662;-69
2021/04/14 06:10:24;;;;;;;4.82;3.20;;;21.00;74.80;;;;;;5087445;28;20063;-69
2021/04/14 06:12:52;;;;;;;7.30;3.72;;;21.00;74.80;;;;;;5091030;28;20379;-69
2021/04/14 06:15:23;;;;;;;6.47;3.40;;;21.00;75.00;;;;;;5083491;28;20485;-69
2021/04/14 06:17:50;;;;;;;5.63;3.00;;;21.00;75.00;;;;;;5089706;28;20028;-69
2021/04/14 06:20:20;;;;;;;3.40;2.95;;;21.00;74.90;;;;;;5085346;28;20020;-69
2021/04/14 06:22:47;;;;;;;4.15;2.10;;;21.00;75.00;;;;;;5086347;28;20024;-69
2021/04/14 06:25:18;;;;;;;5.60;3.08;;;21.00;75.00;;;;;;5085971;28;20362;-69
2021/04/14 06:27:57;;;;;;;4.18;2.50;;;21.00;75.10;;;;;;5085447;28;20348;-69
2021/04/14 06:30:23;;;;;;;4.97;2.70;;;21.00;75.10;;;;;;5090317;28;20498;-69
2021/04/14 06:32:50;;;;;;;3.78;2.38;;;21.00;75.20;;;;;;5081213;28;20499;-69
2021/04/14 06:35:18;;;;;;;5.05;2.95;;;21.10;75.20;;;;;;5089691;28;20115;-68
2021/04/14 06:37:44;;;;;;;4.70;2.65;;;21.00;75.20;;;;;;5086715;28;20043;-69
2021/04/14 06:40:30;;;;;;;3.05;2.00;;;21.10;75.30;;;;;;5086222;28;20029;-69
2021/04/14 06:43:39;;;;;;;2.72;2.00;;;21.10;75.20;;;;;;5083081;28;20062;-69
2021/04/14 06:46:15;;;;;;;3.15;2.08;;;21.10;75.20;;;;;;5089585;28;20482;-68
2021/04/14 06:48:51;;;;;;;4.82;2.80;;;21.10;75.20;;;;;;5090503;28;20163;-69
2021/04/14 06:51:59;;;;;;;2.85;2.15;;;21.10;75.10;;;;;;5085749;28;20024;-69
2021/04/14 06:54:48;;;;;;;2.78;2.30;;;21.10;75.10;;;;;;5060330;28;20028;-69
2021/04/14 06:57:22;;;;;;;3.42;2.22;;;21.10;75.10;;;;;;5088399;28;20018;-69
2021/04/14 06:59:59;;;;;;;4.93;2.42;;;21.10;75.60;;;;;;5087086;28;20043;-69
2021/04/14 07:02:46;;;;;;;3.83;2.38;;;21.20;74.90;;;;;;5072815;28;20024;-68
2021/04/14 07:05:24;;;;;;;2.38;2.17;;;21.20;74.70;;;;;;5080328;28;20360;-69
2021/04/14 07:07:54;;;;;;;3.92;1.90;;;21.20;74.60;;;;;;5089884;28;20024;-69
2021/04/14 07:10:27;;;;;;;2.38;2.03;;;21.20;74.40;;;;;;5084294;28;20037;-69
2021/04/14 07:12:56;;;;;;;5.80;2.58;;;21.30;74.30;;;;;;5083163;28;20102;-69
2021/04/14 07:15:23;;;;;;;4.50;2.95;;;21.30;74.30;;;;;;5090425;28;20020;-69
2021/04/14 07:18:06;;;;;;;7.82;2.10;;;21.30;74.20;;;;;;5084906;28;20353;-69
2021/04/14 07:20:45;;;;;;;3.05;1.90;;;21.40;74.10;;;;;;5088849;28;20077;-69
2021/04/14 07:23:40;;;;;;;4.82;1.75;;;21.40;73.90;;;;;;5089080;28;20058;-69
2021/04/14 07:26:31;;;;;;;4.22;2.33;;;21.40;73.80;;;;;;5085337;28;20067;-69
2021/04/14 07:29:28;;;;;;;4.65;2.45;;;21.50;73.80;;;;;;5085539;28;20039;-69
2021/04/14 07:32:15;;;;;;;3.92;2.20;;;21.50;73.70;;;;;;5083521;28;20109;-68
2021/04/14 07:35:00;;;;;;;3.63;1.95;;;21.50;73.60;;;;;;5086873;28;20008;-69
2021/04/14 07:38:11;;;;;;;7.95;2.65;;;21.50;73.50;;;;;;5087603;28;20542;-68
2021/04/14 07:40:57;;;;;;;6.70;2.55;;;21.60;73.50;;;;;;5063782;28;20123;-68
2021/04/14 07:43:52;;;;;;;5.30;2.42;;;21.60;73.50;;;;;;5085101;28;20008;-68
2021/04/14 07:46:23;;;;;;;8.20;3.15;;;21.60;73.40;;;;;;5083266;28;20055;-68
2021/04/14 07:48:53;;;;;;;7.97;3.28;;;21.70;73.60;;;;;;5084567;28;20497;-69
2021/04/14 07:51:21;;;;;;;8.50;2.50;;;21.70;73.60;;;;;;5088968;28;20020;-68
2021/04/14 07:54:07;;;;;;;4.00;2.30;;;21.70;73.50;;;;;;5086479;28;20056;-69
2021/04/14 07:56:51;;;;;;;8.48;3.15;;;21.70;73.40;;;;;;5084803;28;20474;-69
2021/04/14 07:59:39;;;;;;;7.82;2.80;;;21.80;73.40;;;;;;5086858;28;20126;-68
2021/04/14 08:02:11;;;;;;;5.25;2.17;;;21.80;73.20;;;;;;5087207;28;20060;-68
2021/04/14 08:04:45;;;;;;;6.28;3.88;;;21.80;73.20;;;;;;5082945;28;20463;-68
2021/04/14 08:07:16;;;;;;;4.30;2.42;;;21.80;73.10;;;;;;5087319;28;20027;-68
2021/04/14 08:09:54;;;;;;;9.85;2.67;;;21.90;73.10;;;;;;5087638;28;20040;-68
2021/04/14 08:12:33;;;;;;;5.40;2.22;;;21.90;72.90;;;;;;5088860;28;20035;-68
2021/04/14 08:15:32;;;;;;;7.60;3.03;;;21.90;72.70;;;;;;5084739;28;20024;-69
2021/04/14 08:18:19;;;;;;;5.25;2.13;;;22.00;72.60;;;;;;5084469;28;20020;-69
2021/04/14 08:20:50;;;;;;;5.20;2.30;;;22.00;72.40;;;;;;5088671;28;20534;-69
2021/04/14 08:23:23;;;;;;;5.70;2.72;;;22.10;72.50;;;;;;5088219;28;20024;-69
2021/04/14 08:25:56;;;;;;;6.05;3.03;;;22.10;72.30;;;;;;5084749;28;20035;-69
2021/04/14 08:28:43;;;;;;;4.90;2.30;;;22.10;72.00;;;;;;5087847;28;20089;-69
2021/04/14 08:31:36;;;;;;;4.25;2.15;;;22.20;71.80;;;;;;5082642;28;20028;-69
2021/04/14 08:34:23;;;;;;;4.05;2.22;;;22.30;71.40;;;;;;5085476;28;20058;-69
2021/04/14 08:36:52;;;;;;;6.55;2.55;;;22.30;71.00;;;;;;5083375;28;20529;-69
2021/04/14 08:39:30;;;;;;;7.13;2.22;;;22.30;70.60;;;;;;5084717;28;20027;-69
2021/04/14 08:42:31;;;;;;;4.82;1.92;;;22.40;70.50;;;;;;5086109;28;20025;-68
2021/04/14 08:45:30;;;;;;;6.00;2.55;;;22.50;70.50;;;;;;5086207;28;20070;-69
2021/04/14 08:48:26;;;;;;;3.63;2.03;;;22.60;70.10;;;;;;5083623;28;20020;-69
2021/04/14 08:50:56;;;;;;;5.90;2.20;;;22.60;69.40;;;;;;5086375;28;20036;-68
2021/04/14 08:53:31;;;;;;;6.03;2.40;;;22.70;69.10;;;;;;5084189;28;20078;-70
2021/04/14 08:55:58;;;;;;;3.47;2.30;;;22.80;68.90;;;;;;5083400;28;20417;-69
2021/04/14 08:58:25;;;;;;;3.90;2.30;;;22.80;68.50;;;;;;5091815;28;20016;-68
2021/04/14 09:00:53;;;;;;;7.30;2.35;;;22.90;67.90;;;;;;5091416;28;20048;-68
2021/04/14 09:03:24;;;;;;;5.88;2.30;;;23.00;67.40;;;;;;5092856;28;20543;-68
2021/04/14 09:05:51;;;;;;;6.47;3.28;;;23.00;67.10;;;;;;5089739;28;20020;-69
2021/04/14 09:08:21;;;;;;;10.82;3.17;;;23.10;66.60;;;;;;5086431;28;20053;-69
2021/04/14 09:11:11;;;;;;;4.88;2.53;;;23.10;66.40;;;;;;5087868;28;20055;-69
2021/04/14 09:14:06;;;;;;;8.35;3.00;;;23.20;66.50;;;;;;5087190;28;20031;-69
2021/04/14 09:16:47;;;;;;;;;;;23.30;65.70;;;;;;5093859;28;20058;-68
2021/04/14 09:19:23;;;;;;;4.40;2.35;;;23.40;64.80;;;;;;5085021;28;19967;-69
2021/04/14 09:22:04;;;;;;;6.60;3.28;;;23.40;64.00;;;;;;5087068;28;20021;-69
2021/04/14 09:24:38;;;;;;;7.60;2.45;;;23.50;63.30;;;;;;5091649;28;20024;-69
2021/04/14 09:27:09;;;;;;;6.22;2.10;;;23.60;62.70;;;;;;5086836;28;20016;-68
2021/04/14 09:29:55;;;;;;;4.95;2.53;;;23.70;62.50;;;;;;5089542;28;20039;-68
2021/04/14 09:32:57;;;;;;;9.07;2.53;;;23.70;62.10;;;;;;5026853;28;20039;-69
2021/04/14 09:35:40;;;;;;;6.88;2.30;;;23.80;61.00;;;;;;5089418;28;20031;-69
2021/04/14 09:38:09;;;;;;;4.95;2.15;;;23.90;60.90;;;;;;5082075;28;20025;-68
2021/04/14 09:40:37;;;;;;;6.90;2.63;;;24.00;60.90;;;;;;5090480;28;20020;-68
2021/04/14 09:43:19;;;;;;;5.43;2.17;;;24.10;60.00;;;;;;5091149;28;20021;-68
2021/04/14 09:46:34;;;;;;;7.88;3.10;;;24.10;59.50;;;;;;5087855;28;20491;-69
2021/04/14 09:49:16;;;;;;;9.77;2.67;;;24.20;59.10;;;;;;5017719;28;20431;-68
2021/04/14 09:51:56;;;;;;;10.00;2.60;;;24.30;58.60;;;;;;5092141;28;20045;-69
2021/04/14 09:54:27;;;;;;;12.25;3.05;;;24.40;59.00;;;;;;5090089;28;20020;-69
2021/04/14 09:56:57;;;;;;;11.27;2.60;;;24.40;58.50;;;;;;5091958;28;20013;-69
2021/04/14 09:59:28;;;;;;;7.38;2.08;;;24.50;58.70;;;;;;5086565;28;20477;-69
2021/04/14 10:02:02;;;;;;;8.25;3.15;;;24.60;58.20;;;;;;5084538;28;20032;-69
2021/04/14 10:04:29;;;;;;;5.80;2.75;;;24.60;58.30;;;;;;5091664;28;20131;-68
2021/04/14 10:07:02;;;;;;;6.18;2.55;;;24.60;58.30;;;;;;5090426;28;20405;-69
2021/04/14 10:09:36;;;;;;;8.13;2.92;;;24.70;58.10;;;;;;5090910;28;20040;-68
2021/04/14 10:12:16;;;;;;;6.57;2.50;;;24.70;57.90;;;;;;5073724;28;20024;-68
2021/04/14 10:14:55;;;;;;;3.78;2.65;;;24.80;57.60;;;;;;5088948;28;20310;-69
2021/04/14 10:17:24;;;;;;;6.28;3.05;;;24.80;57.10;;;;;;5090874;28;20045;-69
2021/04/14 10:19:54;;;;;;;7.35;2.40;;;24.80;57.10;;;;;;5091144;28;20028;-69
2021/04/14 10:22:29;;;;;;;6.43;3.05;;;24.90;57.30;;;;;;5088933;28;20028;-69
2021/04/14 10:25:17;;;;;;;8.90;3.28;;;24.90;57.20;;;;;;5086632;28;20063;-69
2021/04/14 10:27:45;;;;;;;5.40;3.10;;;25.00;57.30;;;;;;5089276;28;20490;-69
2021/04/14 10:30:21;;;;;;;9.68;3.55;;;25.00;57.30;;;;;;5086952;28;20059;-69
2021/04/14 10:32:48;;;;;;;7.03;3.63;;;25.10;57.60;;;;;;5083887;28;20024;-69
2021/04/14 10:35:21;;;;;;;9.93;4.10;;;25.10;57.90;;;;;;5090060;28;20115;-70
2021/04/14 10:37:51;;;;;;;8.95;3.25;;;25.20;57.50;;;;;;5087435;28;20091;-68
2021/04/14 10:40:32;;;;;;;6.93;3.03;;;25.20;57.40;;;;;;5088103;28;20039;-69
2021/04/14 10:43:19;;;;;;;8.88;2.90;;;25.30;57.20;;;;;;5087390;28;20500;-69
2021/04/14 10:46:01;;;;;;;10.55;3.45;;;25.30;56.80;;;;;;5081311;28;20035;-69
2021/04/14 10:48:28;;;;;;;9.60;3.67;;;25.30;56.90;;;;;;5087225;28;20115;-68
2021/04/14 10:51:22;;;;;;;7.43;2.33;;;25.30;57.00;;;;;;5090037;28;20107;-69
2021/04/14 10:53:50;;;;;;;5.15;2.67;;;25.40;57.00;;;;;;5088253;28;20497;-69
2021/04/14 10:56:28;;;;;;;9.40;2.97;;;25.50;56.80;;;;;;5083658;28;20070;-69
2021/04/14 10:58:57;;;;;;;12.30;2.20;;;25.60;56.30;;;;;;5072430;28;20114;-68
2021/04/14 11:01:53;;;;;;;8.30;2.72;;;25.60;56.20;;;;;;5089865;28;20020;-68
2021/04/14 11:04:26;;;;;;;11.02;3.53;;;25.60;56.40;;;;;;5067502;28;20040;-68
2021/04/14 11:06:59;;;;;;;17.10;3.08;;;25.60;56.30;;;;;;5085118;28;20095;-68
2021/04/14 11:09:26;;;;;;;9.73;2.40;;;25.70;56.20;;;;;;5073198;28;20051;-68
2021/04/14 11:11:53;;;;;;;12.85;2.78;;;25.70;57.10;;;;;;5087316;28;20040;-68
2021/04/14 11:14:20;;;;;;;9.30;3.05;;;25.70;56.70;;;;;;5090013;28;20486;-69
2021/04/14 11:16:48;;;;;;;8.68;3.03;;;25.70;56.90;;;;;;5086929;28;20382;-69
2021/04/14 11:19:16;;;;;;;12.43;3.35;;;25.70;57.00;;;;;;5085007;28;20059;-69
2021/04/14 11:21:44;;;;;;;7.93;3.58;;;25.70;56.90;;;;;;5089644;28;20016;-69
2021/04/14 11:24:16;;;;;;;6.93;2.67;;;25.70;56.80;;;;;;5087420;28;20135;-68
2021/04/14 11:26:58;;;;;;;6.18;2.97;;;25.80;56.90;;;;;;5089829;28;20020;-69
2021/04/14 11:29:28;;;;;;;11.75;2.97;;;25.80;56.90;;;;;;5085149;28;20070;-70
2021/04/14 11:31:56;;;;;;;8.02;2.70;;;25.80;56.90;;;;;;5084061;28;20115;-69
2021/04/14 11:34:31;;;;;;;8.13;3.03;;;25.80;56.90;;;;;;5089361;28;20382;-69
2021/04/14 11:37:16;;;;;;;8.48;4.18;;;25.90;57.00;;;;;;5081305;28;20509;-68
2021/04/14 11:39:52;;;;;;;12.25;3.67;;;25.90;57.10;;;;;;5084233;28;20028;-69
2021/04/14 11:42:22;;;;;;;11.35;3.92;;;25.90;57.20;;;;;;5085720;28;20035;-68
2021/04/14 11:44:57;;;;;;;8.77;2.83;;;25.90;57.50;;;;;;5086613;28;20020;-69
2021/04/14 11:47:27;;;;;;;;;;;25.90;57.80;;;;;;5089942;28;20017;-68
2021/04/14 11:49:55;;;;;;;9.13;2.58;;;25.90;58.00;;;;;;5080669;28;19927;-68
2021/04/14 11:52:30;;;;;;;6.55;2.88;;;25.90;58.10;;;;;;5088859;28;20028;-68
2021/04/14 11:55:08;;;;;;;6.88;2.25;;;26.00;58.30;;;;;;5084416;28;20035;-69
2021/04/14 11:57:42;;;;;;;10.80;2.85;;;25.90;58.20;;;;;;5090038;28;20027;-69
2021/04/14 12:00:26;;;;;;;7.55;2.10;;;26.00;58.40;;;;;;5087781;28;20069;-68
2021/04/14 12:03:00;;;;;;;6.95;2.80;;;26.00;58.30;;;;;;5084993;28;20044;-69
2021/04/14 12:05:27;;;;;;;4.30;2.30;;;26.10;58.20;;;;;;5085921;28;20028;-68
2021/04/14 12:07:53;;;;;;;6.65;2.50;;;26.20;58.30;;;;;;5082689;28;20487;-68
2021/04/14 12:10:20;;;;;;;8.02;2.00;;;26.20;58.10;;;;;;5088333;28;20512;-68
2021/04/14 12:12:48;;;;;;;4.90;2.10;;;26.20;57.80;;;;;;5086669;28;20039;-69
2021/04/14 12:15:17;;;;;;;8.20;2.38;;;26.20;57.70;;;;;;5084146;28;20032;-69
2021/04/14 12:17:44;;;;;;;2.28;1.58;;;26.20;57.80;;;;;;5089067;28;20461;-69
2021/04/14 12:20:11;;;;;;;5.93;2.17;;;26.30;57.80;;;;;;5087846;28;20093;-68
2021/04/14 12:22:37;;;;;;;5.50;2.30;;;26.40;57.50;;;;;;5089312;28;20020;-69
2021/04/14 12:25:04;;;;;;;5.32;1.85;;;26.40;57.40;;;;;;5085808;28;20107;-68
2021/04/14 12:27:31;;;;;;;4.00;2.22;;;26.50;57.20;;;;;;5085842;28;20024;-69
2021/04/14 12:29:57;;;;;;;6.15;2.10;;;26.60;57.20;;;;;;5088402;28;20046;-69
2021/04/14 12:32:24;;;;;;;5.30;1.95;;;26.60;57.10;;;;;;5089350;28;20101;-69
2021/04/14 12:34:50;;;;;;;4.75;2.20;;;26.70;56.80;;;;;;5086864;28;20071;-69
2021/04/14 12:37:17;;;;;;;5.32;2.13;;;26.80;56.80;;;;;;5091320;28;20026;-68
2021/04/14 12:39:44;;;;;;;4.60;2.30;;;26.80;56.60;;;;;;5093026;28;20061;-69
2021/04/14 12:42:11;;;;;;;7.78;1.88;;;26.80;56.40;;;;;;5089732;28;20020;-69
2021/04/14 12:44:37;;;;;;;4.03;1.95;;;26.80;56.30;;;;;;5086893;28;20028;-69
2021/04/14 12:47:12;;;;;;;4.97;2.75;;;26.80;56.40;;;;;;5090151;28;20074;-69
2021/04/14 12:49:42;;;;;;;3.80;2.30;;;26.80;56.50;;;;;;5087546;28;20044;-69
2021/04/14 12:52:25;;;;;;;5.00;1.60;;;26.80;56.50;;;;;;5089396;28;20107;-69
2021/04/14 12:54:56;;;;;;;5.18;2.25;;;26.70;56.70;;;;;;5087737;28;20039;-69
2021/04/14 12:57:30;;;;;;;6.32;2.28;;;26.70;56.90;;;;;;5091545;28;20042;-69
2021/04/14 13:00:05;;;;;;;3.53;1.77;;;26.70;56.80;;;;;;5084134;28;20085;-69
2021/04/14 13:02:36;;;;;;;6.38;1.90;;;26.70;57.00;;;;;;5092600;28;20056;-69
2021/04/14 13:05:09;;;;;;;4.40;1.90;;;26.70;57.30;;;;;;5090839;28;20020;-69
2021/04/14 13:07:53;;;;;;;4.32;1.70;;;26.80;57.50;;;;;;5086699;28;20083;-69
2021/04/14 13:10:23;;;;;;;6.25;1.92;;;26.70;57.40;;;;;;5091267;28;20054;-69
